METAR Data
IDs: Format: Raw Decoded Include TAF

Data at: 1213 UTC 23 Sep 2018

KLXV 231153Z AUTO 04003KT 10SM CLR 01/M07 A3041 RMK AO2 SLP158 T00061072 10044 21022 56001
KLXV 231053Z AUTO 00000KT 10SM CLR M01/M07 A3041 RMK AO2 SLP158 T10061072
KLXV 230953Z AUTO 00000KT 10SM CLR 01/M08 A3041 RMK AO2 SLP149 T00111078
KLXV 230853Z AUTO 00000KT 10SM CLR 01/M08 A3041 RMK AO2 SLP150 T00111078 58004
KLXV 230753Z AUTO 00000KT 10SM CLR 04/M08 A3042 RMK AO2 SLP144 T00391083
KLXV 230653Z AUTO 05006KT 10SM CLR 03/M08 A3042 RMK AO2 SLP155 T00281083 401941028
KLXV 230553Z AUTO 06007KT 10SM CLR 02/M09 A3043 RMK AO2 SLP160 T00221089 10172 20022 58002
KLXV 230453Z AUTO 05006KT 10SM CLR 04/M09 A3044 RMK AO2 SLP169 T00391089
KLXV 230353Z AUTO 06008KT 10SM CLR 04/M08 A3044 RMK AO2 SLP177 T00441083
KLXV 230253Z AUTO 01003KT 10SM CLR 07/M09 A3043 RMK AO2 SLP182 T00721089 53008
KLXV 230153Z AUTO 04006KT 10SM CLR 09/M09 A3042 RMK AO2 SLP200 T00941094
KLXV 230053Z AUTO 33005KT 10SM CLR 14/M10 A3041 RMK AO2 SLP183 T01441100
KLXV 222353Z AUTO 29010G17KT 10SM CLR 17/M12 A3040 RMK AO2 SLP165 T01721117 10194 20161 55005
KLXV 222253Z AUTO 33008G20KT 10SM CLR 18/M12 A3040 RMK AO2 SLP150 T01831117
KLXV 222153Z AUTO 30012G17KT 10SM CLR 19/M11 A3040 RMK AO2 SLP152 T01891111
KLXV 222053Z AUTO 36010G17KT 10SM CLR 19/M12 A3042 RMK AO2 SLP159 T01891117 58020
KLXV 221953Z AUTO VRB06G18KT 10SM CLR 18/M12 A3046 RMK AO2 SLP163 T01781122
KLXV 221853Z AUTO 34008G17KT 10SM CLR 17/M12 A3048 RMK AO2 SLP176 T01721117
KLXV 221753Z AUTO 34011G18KT 10SM CLR 17/M12 A3050 RMK AO2 SLP179 T01671117 10167 21028 58008
KLXV 221653Z AUTO 16003KT 10SM CLR 14/M09 A3053 RMK AO2 SLP200 T01391089
KLXV 221553Z AUTO 00000KT 10SM CLR 11/M04 A3053 RMK AO2 SLP197 T01111044
KLXV 221453Z AUTO 00000KT 10SM CLR 07/M05 A3054 RMK AO2 SLP213 T00721050 51004
KLXV 221353Z AUTO 00000KT 10SM CLR M01/M04 A3053 RMK AO2 SLP240 T10111044
KLXV 221253Z AUTO 00000KT 10SM CLR M03/M05 A3053 RMK AO2 SLP225 T10281050
KLXV 221153Z AUTO 06005KT 10SM CLR M02/M05 A3052 RMK AO2 SLP208 T10221050 10056 21028 53002
KLXV 221053Z AUTO 08006KT 10SM CLR 00/M04 A3051 RMK AO2 SLP192 T00001039
KLXV 220953Z AUTO 18005KT 10SM CLR 00/M03 A3052 RMK AO2 SLP203 T00001033
KLXV 220853Z AUTO 09004KT 10SM CLR 00/M03 A3051 RMK AO2 SLP192 T00001028 56005
KLXV 220753Z AUTO 08005KT 10SM CLR 03/M02 A3052 RMK AO2 SLP190 T00281022
KLXV 220653Z AUTO 07006KT 10SM CLR 02/M02 A3053 RMK AO2 SLP201 T00221022 401941039
KLXV 220553Z AUTO 05003KT 10SM CLR 04/M03 A3054 RMK AO2 SLP205 T00441028 10178 20017 51006
KLXV 220453Z AUTO 00000KT 10SM CLR 03/M06 A3054 RMK AO2 SLP223 T00331056
KLXV 220353Z AUTO 00000KT 10SM CLR 08/M08 A3053 RMK AO2 SLP211 T00781078
KLXV 220253Z AUTO 00000KT 10SM CLR 08/M09 A3051 RMK AO2 SLP214 T00781094 53018
KLXV 220153Z AUTO 06005KT 10SM CLR 09/M12 A3048 RMK AO2 SLP219 T00941117
KLXV 220053Z AUTO 31006KT 10SM CLR 14/M15 A3046 RMK AO2 SLP199 T01441150